createdAt,value
2023-03-25T00:00:21.228Z,77.21
2023-03-25T00:02:53.047Z,77.36
2023-03-25T00:05:23.481Z,77.01
2023-03-25T00:07:54.180Z,77.26
2023-03-25T00:10:22.863Z,77.33
2023-03-25T00:12:52.907Z,77.42
2023-03-25T00:15:23.857Z,77.49
2023-03-25T00:17:52.566Z,77.58
2023-03-25T00:20:21.519Z,77.39
2023-03-25T00:22:50.235Z,77.57
2023-03-25T00:25:20.718Z,77.41
2023-03-25T00:27:51.184Z,77.40
2023-03-25T00:30:22.321Z,77.35
2023-03-25T00:32:52.870Z,77.07
2023-03-25T00:35:24.179Z,77.43
2023-03-25T00:37:57.713Z,78.44
2023-03-25T00:40:28.508Z,78.89
2023-03-25T00:42:58.032Z,79.73
2023-03-25T00:45:28.160Z,78.32
2023-03-25T00:47:57.174Z,78.65
2023-03-25T00:50:26.379Z,79.21
2023-03-25T00:52:55.251Z,78.97
2023-03-25T00:55:24.123Z,78.46
2023-03-25T00:57:52.884Z,78.46
2023-03-25T01:00:21.878Z,78.30
2023-03-25T01:02:54.353Z,79.57
2023-03-25T01:05:23.123Z,78.56
2023-03-25T01:07:53.270Z,78.65
2023-03-25T01:10:22.321Z,78.34
2023-03-25T01:12:51.042Z,78.38
2023-03-25T01:15:20.432Z,78.75
2023-03-25T01:17:49.238Z,78.53
2023-03-25T01:20:19.687Z,78.52
2023-03-25T01:22:48.441Z,78.67
2023-03-25T01:25:17.281Z,78.74
2023-03-25T01:27:45.977Z,78.61
2023-03-25T01:30:16.620Z,78.27
2023-03-25T01:32:46.068Z,78.18
2023-03-25T01:35:14.936Z,79.28
2023-03-25T01:37:46.916Z,78.80
2023-03-25T01:40:21.716Z,78.84
2023-03-25T01:42:51.029Z,79.70
2023-03-25T01:45:30.841Z,79.82
2023-03-25T01:48:11.428Z,79.39
2023-03-25T01:50:46.324Z,80.34
2023-03-25T01:53:17.381Z,79.98
2023-03-25T01:55:47.905Z,80.09
2023-03-25T01:58:20.372Z,81.02
2023-03-25T02:00:52.025Z,80.73
2023-03-25T02:03:25.509Z,80.13
2023-03-25T02:06:03.911Z,80.18
2023-03-25T02:08:39.781Z,79.74
2023-03-25T02:11:10.317Z,80.19
2023-03-25T02:13:41.559Z,80.95
2023-03-25T02:16:28.358Z,79.99
2023-03-25T02:19:47.737Z,80.00
2023-03-25T02:23:08.696Z,80.52
2023-03-25T02:26:21.296Z,80.14
2023-03-25T02:29:02.239Z,80.52
2023-03-25T02:31:54.186Z,80.44
2023-03-25T02:34:57.781Z,80.24
2023-03-25T02:38:13.559Z,80.30
2023-03-25T02:40:58.709Z,80.40
2023-03-25T02:43:33.785Z,80.83
2023-03-25T02:46:09.848Z,80.16
2023-03-25T02:48:46.204Z,79.97
2023-03-25T02:51:22.561Z,79.84
2023-03-25T02:53:56.426Z,79.53
2023-03-25T02:56:29.506Z,79.71
2023-03-25T02:58:59.094Z,79.50
2023-03-25T03:01:29.103Z,79.63
2023-03-25T03:03:58.496Z,78.99
2023-03-25T03:06:29.585Z,78.82
2023-03-25T03:09:28.637Z,79.55
2023-03-25T03:12:22.075Z,79.62
2023-03-25T03:15:13.118Z,78.66
2023-03-25T03:17:51.582Z,79.02
2023-03-25T03:20:33.154Z,79.67
2023-03-25T03:23:11.077Z,79.46
2023-03-25T03:25:52.843Z,79.11
2023-03-25T03:28:32.043Z,78.77
2023-03-25T03:31:08.724Z,79.28
2023-03-25T03:33:50.790Z,78.59
2023-03-25T03:36:26.622Z,79.70
2023-03-25T03:39:02.325Z,79.05
2023-03-25T03:41:37.464Z,79.20
2023-03-25T03:44:10.098Z,79.25
2023-03-25T03:46:46.001Z,78.94
2023-03-25T03:49:20.035Z,79.23
2023-03-25T03:51:54.523Z,79.41
2023-03-25T03:54:29.381Z,79.45
2023-03-25T03:57:04.375Z,79.40
2023-03-25T03:59:47.763Z,79.23
2023-03-25T04:02:27.500Z,79.98
2023-03-25T04:05:00.907Z,79.80
2023-03-25T04:07:39.204Z,79.95
2023-03-25T04:10:16.785Z,79.65
2023-03-25T04:12:53.864Z,79.89
2023-03-25T04:15:23.271Z,79.71
2023-03-25T04:17:52.082Z,79.29
2023-03-25T04:20:29.981Z,78.87
2023-03-25T04:22:58.806Z,79.14
2023-03-25T04:25:27.722Z,78.89
2023-03-25T04:27:59.047Z,78.59
2023-03-25T04:30:29.656Z,78.84
2023-03-25T04:33:00.680Z,78.74
2023-03-25T04:35:33.194Z,79.36
2023-03-25T04:38:02.334Z,79.54
2023-03-25T04:40:31.559Z,79.35
2023-03-25T04:43:01.863Z,79.62
2023-03-25T04:45:30.776Z,79.40
2023-03-25T04:47:59.616Z,79.94
2023-03-25T04:50:31.698Z,80.30
2023-03-25T04:53:01.341Z,78.71
2023-03-25T04:55:30.211Z,78.37
2023-03-25T04:58:00.584Z,77.99
2023-03-25T05:00:29.594Z,78.04
2023-03-25T05:03:01.987Z,77.62
2023-03-25T05:05:30.823Z,77.08
2023-03-25T05:07:59.785Z,76.50
2023-03-25T05:10:30.528Z,76.24
2023-03-25T05:13:07.022Z,77.06
2023-03-25T05:15:39.786Z,76.53
2023-03-25T05:18:10.735Z,76.07
2023-03-25T05:20:39.999Z,76.04
2023-03-25T05:23:12.225Z,74.86
2023-03-25T05:25:41.473Z,75.28
2023-03-25T05:28:14.274Z,75.41
2023-03-25T05:30:46.898Z,75.81
2023-03-25T05:33:19.195Z,73.64
2023-03-25T05:35:49.407Z,72.44
2023-03-25T05:38:19.150Z,72.29
2023-03-25T05:40:48.632Z,70.04
2023-03-25T05:43:22.940Z,71.26
2023-03-25T05:45:52.027Z,72.75
2023-03-25T05:48:21.015Z,71.79
2023-03-25T05:50:49.725Z,72.72
2023-03-25T05:53:18.350Z,73.44
2023-03-25T05:55:51.346Z,73.25
2023-03-25T05:58:25.193Z,74.46
2023-03-25T06:00:54.673Z,75.46
2023-03-25T06:03:26.252Z,73.91
2023-03-25T06:05:56.905Z,74.34
2023-03-25T06:08:27.089Z,73.85
2023-03-25T06:11:00.771Z,73.48
2023-03-25T06:13:34.537Z,73.51
2023-03-25T06:16:04.095Z,73.34
2023-03-25T06:18:34.501Z,73.78
2023-03-25T06:21:04.224Z,74.46
2023-03-25T06:23:36.060Z,74.16
2023-03-25T06:26:05.546Z,73.60
2023-03-25T06:28:35.773Z,73.75
2023-03-25T06:31:09.268Z,73.57
2023-03-25T06:33:43.157Z,73.30
2023-03-25T06:36:15.577Z,72.80
2023-03-25T06:38:45.915Z,72.92
2023-03-25T06:41:21.065Z,72.22
2023-03-25T06:43:59.781Z,70.43
2023-03-25T06:46:47.420Z,70.97
2023-03-25T06:49:25.941Z,70.49
2023-03-25T06:51:57.056Z,70.70
2023-03-25T06:54:27.501Z,69.18
2023-03-25T06:56:56.570Z,69.52
2023-03-25T06:59:27.245Z,69.42
2023-03-25T07:01:56.041Z,69.77
2023-03-25T07:04:33.437Z,68.28
2023-03-25T07:07:03.697Z,67.04
2023-03-25T07:09:33.528Z,67.53
2023-03-25T07:12:02.383Z,68.52
2023-03-25T07:14:32.623Z,66.84
2023-03-25T07:17:01.340Z,67.37
2023-03-25T07:19:30.066Z,66.03
2023-03-25T07:21:58.774Z,65.24
2023-03-25T07:24:27.932Z,68.49
2023-03-25T07:26:56.731Z,63.72
2023-03-25T07:29:28.473Z,65.51
2023-03-25T07:31:58.939Z,65.04
2023-03-25T07:34:28.019Z,64.15
2023-03-25T07:36:56.960Z,64.57
2023-03-25T07:39:26.259Z,66.57
2023-03-25T07:41:55.870Z,66.05
2023-03-25T07:44:44.528Z,67.27
2023-03-25T07:47:14.603Z,67.38
2023-03-25T07:49:44.148Z,69.30
2023-03-25T07:52:12.780Z,70.71
2023-03-25T07:54:41.692Z,72.09
2023-03-25T07:57:10.396Z,71.23
2023-03-25T07:59:39.071Z,73.19
2023-03-25T08:02:08.504Z,73.09
2023-03-25T08:04:39.274Z,74.78
2023-03-25T08:07:08.694Z,73.03
2023-03-25T08:09:37.717Z,72.55
2023-03-25T08:12:07.193Z,71.68
2023-03-25T08:14:36.183Z,70.62
2023-03-25T08:17:06.710Z,70.11
2023-03-25T08:19:37.232Z,70.32
2023-03-25T08:22:05.990Z,70.64
2023-03-25T08:24:35.900Z,70.34
2023-03-25T08:27:13.925Z,70.39
2023-03-25T08:29:45.256Z,75.96
2023-03-25T08:32:14.108Z,78.79
2023-03-25T08:34:44.290Z,85.05
2023-03-25T08:37:13.874Z,85.42
2023-03-25T08:39:48.010Z,84.40
2023-03-25T08:42:16.831Z,84.98
2023-03-25T08:44:45.819Z,86.18
2023-03-25T08:47:14.582Z,86.50
2023-03-25T08:49:44.818Z,90.38
2023-03-25T08:52:13.885Z,90.84
2023-03-25T08:54:42.946Z,90.93
2023-03-25T08:57:11.890Z,90.52
2023-03-25T08:59:41.141Z,89.92
2023-03-25T09:02:12.723Z,90.21
2023-03-25T09:04:41.579Z,90.87
2023-03-25T09:07:20.491Z,89.54
2023-03-25T09:10:04.249Z,90.72
2023-03-25T09:12:33.517Z,90.85
2023-03-25T09:15:02.303Z,91.98
2023-03-25T09:17:31.015Z,93.33
2023-03-25T09:20:00.227Z,90.76
2023-03-25T09:22:30.326Z,94.63
2023-03-25T09:24:59.197Z,94.92
2023-03-25T09:27:27.952Z,96.10
2023-03-25T09:29:57.243Z,96.08
2023-03-25T09:32:26.861Z,96.39
2023-03-25T09:34:55.564Z,98.36
2023-03-25T09:37:25.929Z,97.84
2023-03-25T09:39:56.546Z,98.49
2023-03-25T09:42:41.513Z,97.66
2023-03-25T09:45:27.441Z,99.26
2023-03-25T09:48:04.234Z,99.79
2023-03-25T09:50:37.469Z,99.75
2023-03-25T09:53:19.485Z,100.00
2023-03-25T09:55:51.797Z,99.01
2023-03-25T09:58:35.964Z,93.74
2023-03-25T10:01:27.848Z,93.73
2023-03-25T10:04:31.245Z,91.98
2023-03-25T10:07:21.965Z,91.66
2023-03-25T10:10:00.878Z,91.67
2023-03-25T10:12:46.377Z,91.52
2023-03-25T10:15:28.100Z,90.43
2023-03-25T10:18:28.593Z,86.28
2023-03-25T10:21:08.264Z,87.65
2023-03-25T10:23:43.978Z,85.02
2023-03-25T10:26:21.791Z,79.27
2023-03-25T10:28:58.173Z,78.88
2023-03-25T10:31:34.334Z,79.99
2023-03-25T10:34:08.077Z,76.74
2023-03-25T10:36:44.274Z,73.25
2023-03-25T10:39:20.268Z,72.14
2023-03-25T10:41:54.299Z,70.62
2023-03-25T10:44:29.042Z,70.57
2023-03-25T10:47:05.947Z,73.50
2023-03-25T10:49:37.783Z,71.54
2023-03-25T10:52:07.183Z,68.54
2023-03-25T10:54:41.423Z,67.74
2023-03-25T10:57:18.933Z,69.49
2023-03-25T11:00:02.278Z,65.83
2023-03-25T11:02:33.330Z,66.00
2023-03-25T11:05:08.245Z,65.32
2023-03-25T11:07:41.919Z,61.77
2023-03-25T11:10:21.737Z,59.38
2023-03-25T11:12:58.499Z,57.11
2023-03-25T11:15:34.790Z,55.69
2023-03-25T11:18:12.735Z,57.45
2023-03-25T11:20:49.259Z,54.85
2023-03-25T11:23:28.993Z,57.62
2023-03-25T11:26:13.533Z,59.27
2023-03-25T11:28:46.292Z,59.87
2023-03-25T11:31:21.516Z,61.91
2023-03-25T11:34:15.601Z,61.36
2023-03-25T11:36:55.222Z,63.04
2023-03-25T11:39:33.763Z,62.60
2023-03-25T11:42:16.309Z,62.42
2023-03-25T11:44:52.582Z,56.43
2023-03-25T11:47:28.787Z,53.20
2023-03-25T11:49:57.545Z,49.37
2023-03-25T11:52:33.503Z,51.86
2023-03-25T11:55:03.140Z,50.33
2023-03-25T11:57:40.902Z,49.10
2023-03-25T12:00:31.697Z,49.12
2023-03-25T12:03:20.170Z,45.11
2023-03-25T12:06:01.732Z,43.09
2023-03-25T12:08:44.708Z,45.94
2023-03-25T12:11:19.736Z,46.46
2023-03-25T12:14:11.574Z,41.35
2023-03-25T12:16:51.496Z,41.96
2023-03-25T12:19:35.687Z,39.66
2023-03-25T12:22:20.107Z,39.91
2023-03-25T12:25:08.465Z,40.13
2023-03-25T12:27:58.542Z,41.05
2023-03-25T12:30:53.993Z,39.49
2023-03-25T12:33:48.122Z,38.73
2023-03-25T12:36:40.517Z,38.91
2023-03-25T12:39:43.774Z,42.15
2023-03-25T12:42:34.004Z,48.99
2023-03-25T12:45:25.491Z,54.69
2023-03-25T12:48:02.991Z,57.26
2023-03-25T12:50:49.733Z,58.53
2023-03-25T12:53:41.758Z,53.14
2023-03-25T12:56:43.827Z,55.30
2023-03-25T12:59:49.544Z,55.86
2023-03-25T13:02:49.307Z,59.20
2023-03-25T13:05:24.930Z,60.67
2023-03-25T13:07:59.580Z,62.16
2023-03-25T13:10:37.352Z,63.16
2023-03-25T13:13:14.177Z,60.20
2023-03-25T13:15:48.972Z,60.30
2023-03-25T13:18:25.287Z,58.18
2023-03-25T13:21:09.126Z,57.52
2023-03-25T13:23:46.440Z,56.88
2023-03-25T13:26:23.215Z,56.03
2023-03-25T13:28:58.305Z,54.48
2023-03-25T13:31:32.411Z,56.33
2023-03-25T13:34:22.879Z,55.84
2023-03-25T13:37:08.432Z,53.93
2023-03-25T13:39:53.949Z,53.74
2023-03-25T13:42:32.812Z,54.11
2023-03-25T13:45:05.445Z,48.88
2023-03-25T13:47:43.583Z,49.38
2023-03-25T13:50:25.546Z,49.43
2023-03-25T13:53:04.652Z,48.55
2023-03-25T13:55:40.861Z,48.94
2023-03-25T13:59:02.300Z,48.53
2023-03-25T14:02:29.049Z,48.82
2023-03-25T14:05:33.559Z,46.00
2023-03-25T14:08:40.040Z,49.14
2023-03-25T14:11:25.526Z,47.83
2023-03-25T14:14:01.868Z,49.55
2023-03-25T14:16:37.689Z,48.03
2023-03-25T14:19:14.397Z,47.83
2023-03-25T14:21:48.676Z,47.51
2023-03-25T14:24:26.490Z,47.44
2023-03-25T14:27:00.713Z,49.10
2023-03-25T14:29:40.508Z,48.08
2023-03-25T14:32:36.519Z,47.16
2023-03-25T14:35:59.014Z,55.00
2023-03-25T14:38:53.843Z,61.38
2023-03-25T14:42:01.852Z,63.99
2023-03-25T14:44:34.264Z,65.72
2023-03-25T14:47:28.756Z,65.35
2023-03-25T14:50:07.203Z,63.95
2023-03-25T14:52:43.739Z,65.20
2023-03-25T14:55:20.260Z,65.01
2023-03-25T14:57:52.593Z,65.35
2023-03-25T15:00:29.840Z,64.86
2023-03-25T15:03:06.678Z,64.80
2023-03-25T15:05:38.360Z,67.19
2023-03-25T15:08:18.081Z,66.40
2023-03-25T15:10:52.814Z,65.85
2023-03-25T15:13:28.706Z,66.29
2023-03-25T15:16:04.307Z,65.27
2023-03-25T15:19:15.078Z,62.77
2023-03-25T15:22:20.369Z,61.63
2023-03-25T15:25:01.300Z,60.98
2023-03-25T15:28:11.003Z,60.27
2023-03-25T15:31:20.152Z,60.92
2023-03-25T15:34:16.827Z,61.22
2023-03-25T15:37:08.105Z,60.73
2023-03-25T15:39:55.831Z,58.44
2023-03-25T15:42:51.554Z,58.79
2023-03-25T15:45:42.445Z,57.97
2023-03-25T15:48:52.689Z,57.98
2023-03-25T15:51:51.732Z,58.84
2023-03-25T15:54:43.111Z,57.01
2023-03-25T15:57:25.696Z,57.99
2023-03-25T16:00:09.565Z,57.16
2023-03-25T16:02:50.932Z,57.84
2023-03-25T16:05:23.864Z,57.13
2023-03-25T16:07:53.999Z,59.68
2023-03-25T16:10:32.478Z,59.18
2023-03-25T16:13:05.091Z,58.32
2023-03-25T16:15:37.543Z,59.37
2023-03-25T16:18:11.869Z,58.59
2023-03-25T16:20:42.364Z,55.83
2023-03-25T16:23:21.642Z,58.70
2023-03-25T16:25:53.989Z,60.33
2023-03-25T16:28:29.838Z,60.17
2023-03-25T16:30:58.587Z,60.32
2023-03-25T16:33:31.038Z,60.78
2023-03-25T16:36:06.286Z,58.68
2023-03-25T16:38:35.574Z,58.12
2023-03-25T16:41:12.517Z,59.66
2023-03-25T16:43:42.253Z,60.83
2023-03-25T16:46:15.996Z,60.85
2023-03-25T16:48:53.223Z,61.03
2023-03-25T16:51:29.379Z,61.90
2023-03-25T16:54:00.399Z,61.58
2023-03-25T16:56:32.350Z,62.21
2023-03-25T16:59:06.450Z,63.22
2023-03-25T17:01:39.588Z,64.01
2023-03-25T17:04:19.028Z,63.56
2023-03-25T17:06:54.558Z,64.09
2023-03-25T17:09:34.643Z,63.19
2023-03-25T17:12:11.040Z,63.17
2023-03-25T17:14:44.858Z,63.71
2023-03-25T17:17:34.940Z,65.09
2023-03-25T17:20:10.078Z,64.20
2023-03-25T17:22:41.276Z,64.74
2023-03-25T17:25:27.882Z,64.86
2023-03-25T17:28:01.035Z,65.10
2023-03-25T17:30:42.815Z,64.87
2023-03-25T17:33:15.633Z,66.78
2023-03-25T17:35:47.854Z,65.50
2023-03-25T17:38:28.491Z,65.05
2023-03-25T17:41:03.529Z,65.91
2023-03-25T17:43:36.659Z,66.32
2023-03-25T17:46:07.945Z,66.64
2023-03-25T17:48:37.337Z,65.86
2023-03-25T17:51:06.676Z,66.34
2023-03-25T17:53:36.710Z,66.60
2023-03-25T17:56:06.817Z,67.25
2023-03-25T17:58:35.715Z,66.71
2023-03-25T18:01:04.781Z,66.84
2023-03-25T18:03:36.145Z,66.54
2023-03-25T18:06:05.486Z,66.80
2023-03-25T18:08:35.836Z,66.50
2023-03-25T18:11:04.800Z,66.61
2023-03-25T18:13:33.578Z,67.62
2023-03-25T18:16:02.730Z,66.93
2023-03-25T18:18:32.072Z,66.93
2023-03-25T18:21:03.777Z,68.17
2023-03-25T18:23:32.927Z,67.53
2023-03-25T18:26:04.906Z,68.87
2023-03-25T18:28:36.267Z,68.60
2023-03-25T18:31:06.264Z,68.48
2023-03-25T18:33:35.218Z,68.78
2023-03-25T18:36:04.212Z,69.16
2023-03-25T18:38:34.345Z,68.57
2023-03-25T18:41:05.269Z,68.46
2023-03-25T18:43:34.338Z,68.44
2023-03-25T18:46:04.373Z,68.54
2023-03-25T18:48:33.779Z,68.60
2023-03-25T18:51:02.781Z,68.93
2023-03-25T18:53:31.858Z,69.22
2023-03-25T18:56:04.950Z,69.14
2023-03-25T18:58:37.265Z,68.48
2023-03-25T19:01:07.756Z,69.41
2023-03-25T19:03:41.900Z,69.72
2023-03-25T19:06:14.256Z,69.42
2023-03-25T19:08:44.556Z,69.47
2023-03-25T19:11:21.867Z,69.70
2023-03-25T19:14:04.386Z,69.94
2023-03-25T19:16:33.600Z,69.44
2023-03-25T19:19:12.264Z,69.82
2023-03-25T19:21:43.870Z,69.04
2023-03-25T19:24:13.585Z,69.25
2023-03-25T19:26:45.072Z,69.00
2023-03-25T19:29:17.574Z,68.90
2023-03-25T19:31:47.648Z,67.78
2023-03-25T19:34:18.284Z,68.32
2023-03-25T19:36:48.437Z,67.58
2023-03-25T19:39:18.964Z,66.99
2023-03-25T19:41:51.735Z,67.53
2023-03-25T19:44:21.793Z,66.14
2023-03-25T19:46:51.348Z,66.33
2023-03-25T19:49:36.414Z,69.82
2023-03-25T19:52:09.945Z,70.93
2023-03-25T19:54:45.283Z,71.74
2023-03-25T19:57:18.102Z,72.16
2023-03-25T19:59:48.397Z,74.44
2023-03-25T20:02:20.066Z,74.72
2023-03-25T20:04:50.830Z,74.35
2023-03-25T20:07:21.799Z,75.47
2023-03-25T20:09:55.348Z,76.00
2023-03-25T20:12:40.019Z,76.75
2023-03-25T20:15:21.599Z,77.19
2023-03-25T20:18:19.187Z,76.98
2023-03-25T20:20:54.502Z,76.23
2023-03-25T20:23:30.932Z,76.27
2023-03-25T20:26:12.926Z,75.92
2023-03-25T20:28:46.705Z,76.16
2023-03-25T20:31:26.204Z,75.49
2023-03-25T20:34:15.250Z,75.18
2023-03-25T20:36:44.502Z,74.61
2023-03-25T20:39:16.573Z,75.09
2023-03-25T20:41:46.111Z,75.12
2023-03-25T20:44:16.808Z,75.43
2023-03-25T20:46:46.927Z,75.85
2023-03-25T20:49:27.404Z,75.81
2023-03-25T20:51:57.778Z,76.40
2023-03-25T20:54:37.419Z,75.85
2023-03-25T20:57:07.675Z,75.38
2023-03-25T20:59:38.052Z,76.08
2023-03-25T21:02:06.984Z,75.64
2023-03-25T21:04:37.012Z,76.00
2023-03-25T21:07:07.779Z,75.92
2023-03-25T21:09:54.799Z,76.76
2023-03-25T21:12:32.874Z,76.94
2023-03-25T21:15:13.218Z,77.04
2023-03-25T21:17:42.480Z,77.29
2023-03-25T21:20:13.067Z,76.66
2023-03-25T21:22:44.574Z,76.85
2023-03-25T21:25:16.965Z,77.50
2023-03-25T21:27:46.866Z,78.02
2023-03-25T21:30:17.550Z,77.14
2023-03-25T21:32:46.203Z,77.45
2023-03-25T21:35:14.959Z,78.09
2023-03-25T21:37:44.272Z,78.60
2023-03-25T21:40:14.705Z,78.42
2023-03-25T21:42:46.240Z,78.90
2023-03-25T21:45:18.557Z,79.04
2023-03-25T21:47:53.579Z,78.58
2023-03-25T21:50:23.129Z,78.88
2023-03-25T21:52:52.036Z,78.23
2023-03-25T21:55:22.426Z,78.82
2023-03-25T21:57:51.536Z,77.27
2023-03-25T22:00:24.016Z,77.36
2023-03-25T22:02:58.712Z,76.33
2023-03-25T22:05:32.230Z,75.15
2023-03-25T22:08:01.530Z,75.45
2023-03-25T22:10:30.807Z,74.64
2023-03-25T22:13:00.252Z,74.53
2023-03-25T22:15:31.891Z,74.61
2023-03-25T22:18:00.733Z,73.74
2023-03-25T22:20:29.532Z,73.76
2023-03-25T22:22:58.170Z,72.98
2023-03-25T22:25:26.893Z,73.63
2023-03-25T22:27:55.634Z,73.55
2023-03-25T22:30:24.543Z,72.10
2023-03-25T22:32:54.699Z,72.67
2023-03-25T22:35:23.897Z,72.27
2023-03-25T22:37:55.496Z,71.65
2023-03-25T22:40:25.287Z,72.15
2023-03-25T22:42:54.299Z,69.78
2023-03-25T22:45:23.889Z,71.98
2023-03-25T22:47:54.329Z,71.88
2023-03-25T22:50:23.074Z,71.79
2023-03-25T22:52:51.712Z,71.59
2023-03-25T22:55:20.536Z,71.55
2023-03-25T22:57:49.257Z,71.87
2023-03-25T23:00:19.703Z,72.91
2023-03-25T23:02:49.352Z,72.97
2023-03-25T23:05:21.721Z,73.48
2023-03-25T23:07:50.499Z,73.69
2023-03-25T23:10:20.287Z,73.60
2023-03-25T23:12:50.492Z,73.97
2023-03-25T23:15:19.821Z,73.95
2023-03-25T23:17:49.561Z,74.76
2023-03-25T23:20:20.073Z,75.86
2023-03-25T23:22:49.072Z,75.39
2023-03-25T23:25:17.979Z,74.74
2023-03-25T23:27:47.891Z,74.76
2023-03-25T23:30:19.772Z,74.69
2023-03-25T23:32:49.180Z,75.45
2023-03-25T23:35:21.414Z,74.62
2023-03-25T23:37:53.581Z,72.45
2023-03-25T23:40:23.008Z,72.41
2023-03-25T23:42:51.930Z,72.38
2023-03-25T23:45:20.709Z,72.21
2023-03-25T23:47:49.497Z,71.63
2023-03-25T23:50:19.894Z,72.56
2023-03-25T23:52:48.613Z,71.51
2023-03-25T23:55:17.926Z,72.37
2023-03-25T23:57:46.554Z,71.17
